SBCFSBKP

Guest
Details From SBCF - Tancredo Neves
To SBKP - Sao Paulo Viracopos
Flight Number -
Tags Generated
Created
Modified
Stats Distance 270 nm / 500 km
Max Altitude 0 ft / 0 m
Waypoints 3
Social Downloads 0
Likes 0
Share VATSIM

Download

Looking for another format? Having issues loading an existing format? Contact us
Advertisement - Login to hide

Notes

Generated

Route

SBCF IP SBKP

ID Type Via Altitude Latitude Longitude Leg Dist Tot Dist Heading (true) Name
O SBCF APT - 0 ft / 0 m -19.62356˚ -43.97828˚ - 0 nm - -
IP NDB - 0 ft / 0 m -22.99283˚ -47.15517˚ 269 nm 269 nm 221° / 222° JARDIM NDB
O SBKP APT - 0 ft / 0 m -22.99843˚ -47.14702˚ 0 nm 269 nm 127° / 127° -

Altitude Profile

Advertisement - Login to hide

Weather


0- 5 10 15 20 25 30 35+ Temperature / ° C

Clouds and Precipitation
Forecast for 2017-12-11 12:00 UTC. Updated an hour ago

Ground ~20,000 ft ~40,000 ft Winds

SBCF

Details ICAO SBCF (CNF)
Name Tancredo Neves
Region Brazil
Timezone America/Sao_Paulo (UTC-2.0)
Stats Elevation 2,715 ft / 828 m (AMSL)
Location -19.633758° -43.968854°
Runways 1
Magnetic Variation 22.803° W

METAR

SBCF 110800Z 35003KT CAVOK 20/19 Q1009

Decode

TAF

TAF SBCF 110200Z 1106/1206 34002KT 9999 BKN015 TN20/1109Z TX24/1118Z PROB30 1110/1112 BKN010 BECMG 1112/1114 18003KT 7000 NSC BECMG 1116/1118 BKN020 FEW040TCU PROB30 TEMPO 1119/1122 TSRA SCT020 FEW040CB RMK PCZ

Decode

Departure Runways

ID Width Length Bearing (true) Bearing (mag) Surface Threshold Offset Overrun Length
16 148 ft / 45 m 9,872 ft / 3,009 m 138.97° 161.77° Asphalt 0 ft / 0 m 203 ft / 62 m
34 148 ft / 45 m 9,872 ft / 3,009 m 318.96° 341.76° Asphalt 0 ft / 0 m 203 ft / 62 m

SBKP

Details ICAO SBKP (VCP)
Name Sao Paulo Viracopos
Region Brazil
Timezone America/Sao_Paulo (UTC-2.0)
Stats Elevation 2,170 ft / 661 m (AMSL)
Location -23.007383° -47.134522°
Runways 1
Magnetic Variation 21.193° W

METAR

SBKP 110800Z 11006KT CAVOK 18/17 Q1007

Decode

TAF

TAF SBKP 110115Z 1106/1206 12005KT CAVOK TN20/1109Z TX31/1117Z BECMG 1112/1114 23005KT BECMG 1114/1116 SCT040 BECMG 1118/1120 13015KT CAVOK RMK PGF

Decode

Destination Runways

ID Width Length Bearing (true) Bearing (mag) Surface Threshold Offset Overrun Length
15 148 ft / 45 m 10,639 ft / 3,243 m 127.91° 149.10° Asphalt 0 ft / 0 m 205 ft / 62 m
33 148 ft / 45 m 10,639 ft / 3,243 m 307.90° 329.09° Asphalt 0 ft / 0 m 205 ft / 62 m

Approach Navaids

Runway Type Ident Frequency Range Bearing (true) Bearing (mag) Slope Elevation
15 Localiser IKP 110.30 MHz 18 nm / 33 km 127.95° 149.15° - 2,170 ft / 661 m (AMSL)
15 Glidescope IKP 110.30 MHz 10 nm / 19 km 127.90° 149.10° 3.00° 2,170 ft / 661 m (AMSL)

Popular Alternatives